createdAt,value
2023-03-10T00:00:47.743Z,27.90
2023-03-10T00:03:16.187Z,27.10
2023-03-10T00:05:44.709Z,26.07
2023-03-10T00:08:13.100Z,25.13
2023-03-10T00:10:42.896Z,24.07
2023-03-10T00:13:11.262Z,25.87
2023-03-10T00:15:39.694Z,24.40
2023-03-10T00:18:08.140Z,24.17
2023-03-10T00:20:36.523Z,23.77
2023-03-10T00:23:04.903Z,23.70
2023-03-10T00:25:33.338Z,23.73
2023-03-10T00:28:03.589Z,24.97
2023-03-10T00:30:35.210Z,21.93
2023-03-10T00:33:03.615Z,21.87
2023-03-10T00:35:32.064Z,21.93
2023-03-10T00:38:00.524Z,20.50
2023-03-10T00:40:28.938Z,22.67
2023-03-10T00:42:57.381Z,23.63
2023-03-10T00:45:27.186Z,23.87
2023-03-10T00:47:55.587Z,27.27
2023-03-10T00:50:24.010Z,25.90
2023-03-10T00:52:52.491Z,27.23
2023-03-10T00:55:20.883Z,26.33
2023-03-10T00:57:49.339Z,24.60
2023-03-10T01:00:18.176Z,25.37
2023-03-10T01:02:48.012Z,23.23
2023-03-10T01:05:16.635Z,21.07
2023-03-10T01:07:45.064Z,20.63
2023-03-10T01:10:14.150Z,19.90
2023-03-10T01:12:42.575Z,19.10
2023-03-10T01:15:11.320Z,18.57
2023-03-10T01:17:39.974Z,19.23
2023-03-10T01:20:15.273Z,19.17
2023-03-10T01:22:43.684Z,18.33
2023-03-10T01:25:14.922Z,18.20
2023-03-10T01:27:43.369Z,18.40
2023-03-10T01:30:12.598Z,17.77
2023-03-10T01:32:41.796Z,16.07
2023-03-10T01:35:12.308Z,15.77
2023-03-10T01:37:42.007Z,16.77
2023-03-10T01:40:16.388Z,18.33
2023-03-10T01:42:45.029Z,18.30
2023-03-10T01:45:28.272Z,17.10
2023-03-10T01:47:56.693Z,16.93
2023-03-10T01:50:26.631Z,17.23
2023-03-10T01:52:58.467Z,17.13
2023-03-10T01:55:28.562Z,15.40
2023-03-10T01:57:57.878Z,15.63
2023-03-10T02:00:28.069Z,14.77
2023-03-10T02:02:58.676Z,14.33
2023-03-10T02:05:29.112Z,13.40
2023-03-10T02:07:58.199Z,13.40
2023-03-10T02:10:26.581Z,12.73
2023-03-10T02:12:55.090Z,13.07
2023-03-10T02:15:23.553Z,12.03
2023-03-10T02:17:52.581Z,12.73
2023-03-10T02:20:25.046Z,12.57
2023-03-10T02:22:55.314Z,13.13
2023-03-10T02:25:37.497Z,12.10
2023-03-10T02:28:08.354Z,11.97
2023-03-10T02:30:38.869Z,13.37
2023-03-10T02:33:08.520Z,15.27
2023-03-10T02:35:36.961Z,15.83
2023-03-10T02:38:05.624Z,15.43
2023-03-10T02:40:35.354Z,16.37
2023-03-10T02:43:05.449Z,15.97
2023-03-10T02:45:37.651Z,15.07
2023-03-10T02:48:06.288Z,14.50
2023-03-10T02:50:36.758Z,13.30
2023-03-10T02:53:08.426Z,12.73
2023-03-10T02:55:36.801Z,12.00
2023-03-10T02:58:05.331Z,10.53
2023-03-10T03:00:38.368Z,10.77
2023-03-10T03:03:06.914Z,10.17
2023-03-10T03:05:35.604Z,9.77
2023-03-10T03:08:04.225Z,9.77
2023-03-10T03:10:32.990Z,9.47
2023-03-10T03:13:01.372Z,9.00
2023-03-10T03:15:30.166Z,11.97
2023-03-10T03:18:00.239Z,13.50
2023-03-10T03:20:29.945Z,15.93
2023-03-10T03:22:58.685Z,18.33
2023-03-10T03:25:29.047Z,20.67
2023-03-10T03:27:57.498Z,20.87
2023-03-10T03:30:27.536Z,20.37
2023-03-10T03:32:56.957Z,22.37
2023-03-10T03:35:28.007Z,21.90
2023-03-10T03:37:57.209Z,21.40
2023-03-10T03:40:26.522Z,21.67
2023-03-10T03:42:56.098Z,21.43
2023-03-10T03:45:25.802Z,20.13
2023-03-10T03:47:54.451Z,20.83
2023-03-10T03:50:23.479Z,20.70
2023-03-10T03:52:53.284Z,19.70
2023-03-10T03:55:21.818Z,19.93
2023-03-10T03:57:50.423Z,19.17
2023-03-10T04:00:20.444Z,18.50
2023-03-10T04:02:49.191Z,17.73
2023-03-10T04:05:18.215Z,17.93
2023-03-10T04:07:48.333Z,17.73
2023-03-10T04:10:19.747Z,16.90
2023-03-10T04:12:48.471Z,17.17
2023-03-10T04:15:17.345Z,16.67
2023-03-10T04:17:45.739Z,16.33
2023-03-10T04:20:14.900Z,16.43
2023-03-10T04:22:43.623Z,17.27
2023-03-10T04:25:12.322Z,16.40
2023-03-10T04:27:42.169Z,16.37
2023-03-10T04:30:11.448Z,15.57
2023-03-10T04:32:39.901Z,15.57
2023-03-10T04:35:09.019Z,16.17
2023-03-10T04:37:37.443Z,15.43
2023-03-10T04:40:09.521Z,16.50
2023-03-10T04:42:38.118Z,15.90
2023-03-10T04:45:08.868Z,15.47
2023-03-10T04:47:37.278Z,14.77
2023-03-10T04:50:06.276Z,14.27
2023-03-10T04:52:34.713Z,14.70
2023-03-10T04:55:03.123Z,13.83
2023-03-10T04:57:31.559Z,14.63
2023-03-10T05:00:02.701Z,14.83
2023-03-10T05:02:33.744Z,15.10
2023-03-10T05:05:02.754Z,14.90
2023-03-10T05:07:31.197Z,15.00
2023-03-10T05:10:00.005Z,14.97
2023-03-10T05:12:28.437Z,15.47
2023-03-10T05:14:56.812Z,14.80
2023-03-10T05:17:25.352Z,15.07
2023-03-10T05:19:55.705Z,15.30
2023-03-10T05:22:24.080Z,16.27
2023-03-10T05:24:52.516Z,16.77
2023-03-10T05:27:22.038Z,17.10
2023-03-10T05:29:50.536Z,17.37
2023-03-10T05:32:18.976Z,16.93
2023-03-10T05:34:47.427Z,16.83
2023-03-10T05:37:17.204Z,16.67
2023-03-10T05:39:45.677Z,17.10
2023-03-10T05:42:14.155Z,16.93
2023-03-10T05:44:42.569Z,16.37
2023-03-10T05:47:10.939Z,17.57
2023-03-10T05:49:39.400Z,17.50
2023-03-10T05:52:08.192Z,17.93
2023-03-10T05:54:38.154Z,16.60
2023-03-10T05:57:06.792Z,16.33
2023-03-10T05:59:35.312Z,16.97
2023-03-10T06:02:03.704Z,16.97
2023-03-10T06:04:33.369Z,16.10
2023-03-10T06:07:02.212Z,16.23
2023-03-10T06:09:31.036Z,14.70
2023-03-10T06:12:01.517Z,15.97
2023-03-10T06:14:29.943Z,17.07
2023-03-10T06:16:58.383Z,16.47
2023-03-10T06:19:27.542Z,16.57
2023-03-10T06:21:55.943Z,15.87
2023-03-10T06:24:24.500Z,18.20
2023-03-10T06:26:52.925Z,18.07
2023-03-10T06:29:22.802Z,18.30
2023-03-10T06:31:51.246Z,18.33
2023-03-10T06:34:19.935Z,17.60
2023-03-10T06:36:48.347Z,19.23
2023-03-10T06:39:16.799Z,17.83
2023-03-10T06:41:45.227Z,17.27
2023-03-10T06:44:18.759Z,17.87
2023-03-10T06:46:48.946Z,19.63
2023-03-10T06:49:17.348Z,19.97
2023-03-10T06:51:45.739Z,18.10
2023-03-10T06:54:14.539Z,19.40
2023-03-10T06:56:42.935Z,18.13
2023-03-10T06:59:11.344Z,18.73
2023-03-10T07:01:39.824Z,18.57
2023-03-10T07:04:09.631Z,18.90
2023-03-10T07:06:38.024Z,17.93
2023-03-10T07:09:06.930Z,19.03
2023-03-10T07:11:35.489Z,20.30
2023-03-10T07:14:03.860Z,21.37
2023-03-10T07:16:32.569Z,19.10
2023-03-10T07:19:01.000Z,20.60
2023-03-10T07:21:30.783Z,22.17
2023-03-10T07:23:59.858Z,19.50
2023-03-10T07:26:28.768Z,19.67
2023-03-10T07:28:57.351Z,20.33
2023-03-10T07:31:26.208Z,17.70
2023-03-10T07:33:54.720Z,18.67
2023-03-10T07:36:24.216Z,16.07
2023-03-10T07:38:54.067Z,15.63
2023-03-10T07:41:22.924Z,17.87
2023-03-10T07:43:53.541Z,11.23
2023-03-10T07:46:22.286Z,14.10
2023-03-10T07:48:52.651Z,16.10
2023-03-10T07:51:21.165Z,19.53
2023-03-10T07:53:49.597Z,18.07
2023-03-10T07:56:19.360Z,19.47
2023-03-10T07:58:47.810Z,20.57
2023-03-10T08:01:17.168Z,21.20
2023-03-10T08:03:47.125Z,20.20
2023-03-10T08:06:19.023Z,13.27
2023-03-10T08:08:47.599Z,16.43
2023-03-10T08:11:16.050Z,19.50
2023-03-10T08:13:47.589Z,21.13
2023-03-10T08:16:16.444Z,22.00
2023-03-10T08:18:45.086Z,23.23
2023-03-10T08:21:13.745Z,14.97
2023-03-10T08:23:42.189Z,15.60
2023-03-10T08:26:12.972Z,19.77
2023-03-10T08:28:41.488Z,21.57
2023-03-10T08:31:12.064Z,22.27
2023-03-10T08:33:40.998Z,21.63
2023-03-10T08:36:10.856Z,16.43
2023-03-10T08:38:39.701Z,15.63
2023-03-10T08:41:15.309Z,20.17
2023-03-10T08:43:44.401Z,22.30
2023-03-10T08:46:14.881Z,21.63
2023-03-10T08:48:43.344Z,20.60
2023-03-10T08:51:15.114Z,17.13
2023-03-10T08:53:44.554Z,18.37
2023-03-10T08:56:12.981Z,19.03
2023-03-10T08:58:41.464Z,19.80
2023-03-10T09:01:09.917Z,21.77
2023-03-10T09:03:40.703Z,19.07
2023-03-10T09:06:09.381Z,18.87
2023-03-10T09:08:39.751Z,19.90
2023-03-10T09:11:08.212Z,18.93
2023-03-10T09:13:36.821Z,19.63
2023-03-10T09:16:05.321Z,20.03
2023-03-10T09:18:33.788Z,19.10
2023-03-10T09:21:03.768Z,19.20
2023-03-10T09:23:32.217Z,21.70
2023-03-10T09:26:00.615Z,20.37
2023-03-10T09:28:29.323Z,18.37
2023-03-10T09:30:57.752Z,16.80
2023-03-10T09:33:26.166Z,20.80
2023-03-10T09:36:11.887Z,21.17
2023-03-10T09:38:42.500Z,18.20
2023-03-10T09:41:18.927Z,17.33
2023-03-10T09:43:50.869Z,26.23
2023-03-10T09:46:22.604Z,22.90
2023-03-10T09:48:55.079Z,21.97
2023-03-10T09:51:24.218Z,25.70
2023-03-10T09:53:57.423Z,27.80
2023-03-10T09:56:29.728Z,23.97
2023-03-10T09:58:59.515Z,24.60
2023-03-10T10:01:30.445Z,30.53
2023-03-10T10:04:01.756Z,31.67
2023-03-10T10:06:31.937Z,26.73
2023-03-10T10:09:04.993Z,23.60
2023-03-10T10:11:34.824Z,29.97
2023-03-10T10:14:15.929Z,29.53
2023-03-10T10:16:50.077Z,26.80
2023-03-10T10:19:21.907Z,24.57
2023-03-10T10:21:53.529Z,30.87
2023-03-10T10:24:23.520Z,30.03
2023-03-10T10:26:52.319Z,27.00
2023-03-10T10:29:22.224Z,25.00
2023-03-10T10:32:08.165Z,33.07
2023-03-10T10:34:37.225Z,29.30
2023-03-10T10:37:20.592Z,26.17
2023-03-10T10:39:51.592Z,30.10
2023-03-10T10:42:24.215Z,30.70
2023-03-10T10:44:54.857Z,27.90
2023-03-10T10:47:27.852Z,24.10
2023-03-10T10:49:57.406Z,33.00
2023-03-10T10:52:26.678Z,34.00
2023-03-10T10:54:58.970Z,28.10
2023-03-10T10:57:33.820Z,25.50
2023-03-10T11:00:18.589Z,32.23
2023-03-10T11:02:47.215Z,33.33
2023-03-10T11:05:17.435Z,29.10
2023-03-10T11:07:46.272Z,25.83
2023-03-10T11:10:17.038Z,35.83
2023-03-10T11:12:52.848Z,32.37
2023-03-10T11:15:23.144Z,28.13
2023-03-10T11:17:54.998Z,28.27
2023-03-10T11:20:26.312Z,38.60
2023-03-10T11:22:59.405Z,32.90
2023-03-10T11:25:32.196Z,27.87
2023-03-10T11:28:06.541Z,35.10
2023-03-10T11:30:35.740Z,39.90
2023-03-10T11:33:07.386Z,34.30
2023-03-10T11:35:43.792Z,29.70
2023-03-10T11:38:22.914Z,39.43
2023-03-10T11:40:57.595Z,37.13
2023-03-10T11:43:31.512Z,30.60
2023-03-10T11:46:02.492Z,36.20
2023-03-10T11:48:38.330Z,42.33
2023-03-10T11:51:07.341Z,39.90
2023-03-10T11:53:38.869Z,31.30
2023-03-10T11:56:10.905Z,39.87
2023-03-10T11:58:43.216Z,42.33
2023-03-10T12:01:14.505Z,32.20
2023-03-10T12:03:47.970Z,32.70
2023-03-10T12:06:19.067Z,35.60
2023-03-10T12:08:48.623Z,32.77
2023-03-10T12:11:20.436Z,29.20
2023-03-10T12:13:50.330Z,38.40
2023-03-10T12:16:21.602Z,35.73
2023-03-10T12:18:50.133Z,26.43
2023-03-10T12:21:23.533Z,28.03
2023-03-10T12:23:52.478Z,32.80
2023-03-10T12:26:39.945Z,28.17
2023-03-10T12:29:33.704Z,32.77
2023-03-10T12:32:02.478Z,34.47
2023-03-10T12:34:32.452Z,28.03
2023-03-10T12:37:09.316Z,27.87
2023-03-10T12:39:41.986Z,28.77
2023-03-10T12:42:31.168Z,24.00
2023-03-10T12:45:07.524Z,24.03
2023-03-10T12:47:45.598Z,27.80
2023-03-10T12:50:22.981Z,24.03
2023-03-10T12:52:54.957Z,24.73
2023-03-10T12:55:25.069Z,28.37
2023-03-10T12:57:59.291Z,26.37
2023-03-10T13:00:32.309Z,25.67
2023-03-10T13:03:03.087Z,31.10
2023-03-10T13:05:33.077Z,32.47
2023-03-10T13:08:04.492Z,24.67
2023-03-10T13:10:34.143Z,28.80
2023-03-10T13:13:03.748Z,30.77
2023-03-10T13:15:34.366Z,26.37
2023-03-10T13:18:19.702Z,29.00
2023-03-10T13:20:48.327Z,32.03
2023-03-10T13:23:22.661Z,31.20
2023-03-10T13:25:57.434Z,28.17
2023-03-10T13:28:26.699Z,35.37
2023-03-10T13:31:08.108Z,38.17
2023-03-10T13:33:50.141Z,30.00
2023-03-10T13:36:24.992Z,32.70
2023-03-10T13:39:03.280Z,34.60
2023-03-10T13:41:37.473Z,30.00
2023-03-10T13:44:06.043Z,28.77
2023-03-10T13:46:35.200Z,38.60
2023-03-10T13:49:06.294Z,34.70
2023-03-10T13:51:36.148Z,29.00
2023-03-10T13:54:20.668Z,37.43
2023-03-10T13:56:50.096Z,39.83
2023-03-10T13:59:20.030Z,34.30
2023-03-10T14:01:49.964Z,37.70
2023-03-10T14:04:19.185Z,50.93
2023-03-10T14:06:47.666Z,56.80
2023-03-10T14:09:21.297Z,62.33
2023-03-10T14:11:52.242Z,61.30
2023-03-10T14:14:28.668Z,66.13
2023-03-10T14:16:58.165Z,63.83
2023-03-10T14:19:53.703Z,63.00
2023-03-10T14:22:26.337Z,54.10
2023-03-10T14:24:56.229Z,45.20
2023-03-10T14:27:24.928Z,45.90
2023-03-10T14:29:54.130Z,56.43
2023-03-10T14:32:23.051Z,64.00
2023-03-10T14:34:51.724Z,70.10
2023-03-10T14:37:20.473Z,74.20
2023-03-10T14:39:49.067Z,62.87
2023-03-10T14:42:21.331Z,48.13
2023-03-10T14:44:50.423Z,35.77
2023-03-10T14:47:19.372Z,45.63
2023-03-10T14:49:47.883Z,61.23
2023-03-10T14:52:17.419Z,71.40
2023-03-10T14:54:45.852Z,69.33
2023-03-10T14:57:15.220Z,68.47
2023-03-10T14:59:45.068Z,68.80
2023-03-10T15:02:18.230Z,72.07
2023-03-10T15:04:46.740Z,74.63
2023-03-10T15:07:15.316Z,64.57
2023-03-10T15:09:43.749Z,62.10
2023-03-10T15:12:13.988Z,64.10
2023-03-10T15:14:42.934Z,56.57
2023-03-10T15:17:14.424Z,55.63
2023-03-10T15:19:42.816Z,64.77
2023-03-10T15:22:11.209Z,70.27
2023-03-10T15:24:39.681Z,71.05
2023-03-10T15:27:08.098Z,49.07
2023-03-10T15:29:36.489Z,47.75
2023-03-10T15:32:04.915Z,51.43
2023-03-10T15:34:34.735Z,60.05
2023-03-10T15:37:03.267Z,64.10
2023-03-10T15:39:33.800Z,55.63
2023-03-10T15:42:03.084Z,57.50
2023-03-10T15:44:31.492Z,70.40
2023-03-10T15:47:00.277Z,74.30
2023-03-10T15:49:28.709Z,69.45
2023-03-10T15:51:58.636Z,70.88
2023-03-10T15:54:27.068Z,67.97
2023-03-10T15:56:55.507Z,60.60
2023-03-10T15:59:24.020Z,48.50
2023-03-10T16:01:52.763Z,54.00
2023-03-10T16:04:21.335Z,58.93
2023-03-10T16:06:49.798Z,51.08
2023-03-10T16:09:19.741Z,44.00
2023-03-10T16:11:49.045Z,43.40
2023-03-10T16:14:17.436Z,42.17
2023-03-10T16:16:45.864Z,44.50
2023-03-10T16:19:14.385Z,47.10
2023-03-10T16:21:42.764Z,39.95
2023-03-10T16:24:11.158Z,33.07
2023-03-10T16:26:43.972Z,20.13
2023-03-10T16:29:13.335Z,10.63
2023-03-10T16:31:42.885Z,16.90
2023-03-10T16:34:11.568Z,29.83
2023-03-10T16:36:39.974Z,23.03
2023-03-10T16:39:09.738Z,13.40
2023-03-10T16:41:38.228Z,19.77
2023-03-10T16:44:08.263Z,16.30
2023-03-10T16:46:36.665Z,10.90
2023-03-10T16:49:05.308Z,10.77
2023-03-10T16:51:35.561Z,18.23
2023-03-10T16:54:05.008Z,29.37
2023-03-10T16:56:34.041Z,36.77
2023-03-10T16:59:02.452Z,37.17
2023-03-10T17:01:32.273Z,35.13
2023-03-10T17:04:00.840Z,34.80
2023-03-10T17:06:30.097Z,35.73
2023-03-10T17:08:58.988Z,35.13
2023-03-10T17:11:28.815Z,35.93
2023-03-10T17:13:58.721Z,36.50
2023-03-10T17:16:28.497Z,32.30
2023-03-10T17:18:59.164Z,33.70
2023-03-10T17:21:28.341Z,31.77
2023-03-10T17:23:57.235Z,31.70
2023-03-10T17:26:25.813Z,30.73
2023-03-10T17:28:54.463Z,32.23
2023-03-10T17:31:27.044Z,31.47
2023-03-10T17:33:55.581Z,28.10
2023-03-10T17:36:25.532Z,26.00
2023-03-10T17:38:54.421Z,29.20
2023-03-10T17:41:23.368Z,29.53
2023-03-10T17:43:52.041Z,31.50
2023-03-10T17:46:21.635Z,18.97
2023-03-10T17:48:51.416Z,12.53
2023-03-10T17:51:20.841Z,9.33
2023-03-10T17:53:51.113Z,7.60
2023-03-10T17:56:20.151Z,6.13
2023-03-10T17:58:48.533Z,5.60
2023-03-10T18:01:17.668Z,5.10
2023-03-10T18:03:48.186Z,5.30
2023-03-10T18:06:17.718Z,4.83
2023-03-10T18:08:46.176Z,5.00
2023-03-10T18:11:16.333Z,4.80
2023-03-10T18:13:44.706Z,4.73
2023-03-10T18:16:21.573Z,4.10
2023-03-10T18:18:49.986Z,4.47
2023-03-10T18:21:19.002Z,4.70
2023-03-10T18:23:48.120Z,4.87
2023-03-10T18:26:18.966Z,5.17
2023-03-10T18:28:47.833Z,4.80
2023-03-10T18:31:19.639Z,5.63
2023-03-10T18:33:48.343Z,6.20
2023-03-10T18:36:17.872Z,5.97
2023-03-10T18:38:46.399Z,5.87
2023-03-10T18:41:14.831Z,5.93
2023-03-10T18:43:45.230Z,5.63
2023-03-10T18:46:13.774Z,5.13
2023-03-10T18:48:42.249Z,5.30
2023-03-10T18:51:12.568Z,5.40
2023-03-10T18:53:41.425Z,5.13
2023-03-10T18:56:10.104Z,5.50
2023-03-10T18:58:38.563Z,5.70
2023-03-10T19:01:12.681Z,5.40
2023-03-10T19:03:41.145Z,5.60
2023-03-10T19:06:09.639Z,5.50
2023-03-10T19:08:38.285Z,5.97
2023-03-10T19:11:07.873Z,5.20
2023-03-10T19:13:40.397Z,5.40
2023-03-10T19:16:09.846Z,5.87
2023-03-10T19:18:40.336Z,5.90
2023-03-10T19:21:09.562Z,7.23
2023-03-10T19:23:38.150Z,9.20
2023-03-10T19:26:07.052Z,8.57
2023-03-10T19:28:35.503Z,7.90
2023-03-10T19:31:03.926Z,7.43
2023-03-10T19:33:32.333Z,7.30
2023-03-10T19:36:06.474Z,7.33
2023-03-10T19:38:35.920Z,7.00
2023-03-10T19:41:04.363Z,7.20
2023-03-10T19:43:32.943Z,6.93
2023-03-10T19:46:01.925Z,6.53
2023-03-10T19:48:30.795Z,7.17
2023-03-10T19:51:00.233Z,8.20
2023-03-10T19:53:31.189Z,8.40
2023-03-10T19:56:00.990Z,7.43
2023-03-10T19:58:29.466Z,7.73
2023-03-10T20:00:58.572Z,8.10
2023-03-10T20:03:27.871Z,7.63
2023-03-10T20:05:56.608Z,8.20
2023-03-10T20:08:25.744Z,8.60
2023-03-10T20:11:01.612Z,7.87
2023-03-10T20:13:30.034Z,7.20
2023-03-10T20:15:59.481Z,7.63
2023-03-10T20:18:27.890Z,8.70
2023-03-10T20:20:56.298Z,8.77
2023-03-10T20:23:25.015Z,8.40
2023-03-10T20:26:01.340Z,9.30
2023-03-10T20:28:29.893Z,9.53
2023-03-10T20:30:58.302Z,9.23
2023-03-10T20:33:27.110Z,9.50
2023-03-10T20:35:55.857Z,8.93
2023-03-10T20:38:25.482Z,9.27
2023-03-10T20:40:55.285Z,8.67
2023-03-10T20:43:23.728Z,8.60
2023-03-10T20:45:52.883Z,9.13
2023-03-10T20:48:21.353Z,8.97
2023-03-10T20:50:55.073Z,9.57
2023-03-10T20:53:23.515Z,9.70
2023-03-10T20:55:52.218Z,9.50
2023-03-10T20:58:22.076Z,10.90
2023-03-10T21:00:50.997Z,10.90
2023-03-10T21:03:21.394Z,10.67
2023-03-10T21:05:49.849Z,10.20
2023-03-10T21:08:18.363Z,11.87
2023-03-10T21:10:49.254Z,12.23
2023-03-10T21:13:17.879Z,13.00
2023-03-10T21:15:47.695Z,13.17
2023-03-10T21:18:16.081Z,15.40
2023-03-10T21:20:44.542Z,17.03
2023-03-10T21:23:13.179Z,17.87
2023-03-10T21:25:41.992Z,17.70
2023-03-10T21:28:10.993Z,18.23
2023-03-10T21:30:39.503Z,19.17
2023-03-10T21:33:09.376Z,20.77
2023-03-10T21:35:40.526Z,20.60
2023-03-10T21:38:09.251Z,22.73
2023-03-10T21:40:37.756Z,22.90
2023-03-10T21:43:06.218Z,22.87
2023-03-10T21:45:37.378Z,23.30
2023-03-10T21:48:06.322Z,25.33
2023-03-10T21:50:36.209Z,23.37
2023-03-10T21:53:05.040Z,23.93
2023-03-10T21:55:34.498Z,24.63
2023-03-10T21:58:09.946Z,26.10
2023-03-10T22:00:38.728Z,25.80
2023-03-10T22:03:07.636Z,25.63
2023-03-10T22:05:37.850Z,25.90
2023-03-10T22:08:06.478Z,24.20
2023-03-10T22:10:34.883Z,24.20
2023-03-10T22:13:03.652Z,24.57
2023-03-10T22:15:32.086Z,25.27
2023-03-10T22:18:00.493Z,25.57
2023-03-10T22:20:29.597Z,25.63
2023-03-10T22:22:59.411Z,25.43
2023-03-10T22:25:28.096Z,25.17
2023-03-10T22:27:57.828Z,23.77
2023-03-10T22:30:27.061Z,25.13
2023-03-10T22:32:55.857Z,25.87
2023-03-10T22:35:24.379Z,25.80
2023-03-10T22:37:53.416Z,27.03
2023-03-10T22:40:25.532Z,27.40
2023-03-10T22:42:54.317Z,25.60
2023-03-10T22:45:24.283Z,25.03
2023-03-10T22:47:54.396Z,25.60
2023-03-10T22:50:24.442Z,24.83
2023-03-10T22:52:52.894Z,24.70
2023-03-10T22:55:24.591Z,26.07
2023-03-10T22:57:53.240Z,24.67
2023-03-10T23:00:22.405Z,25.13
2023-03-10T23:02:52.252Z,26.47
2023-03-10T23:05:21.315Z,26.33
2023-03-10T23:07:50.261Z,25.63
2023-03-10T23:10:19.889Z,25.43
2023-03-10T23:12:49.842Z,26.10
2023-03-10T23:15:26.459Z,26.13
2023-03-10T23:17:55.498Z,25.03
2023-03-10T23:20:26.944Z,24.13
2023-03-10T23:22:56.175Z,22.57
2023-03-10T23:25:25.879Z,21.60
2023-03-10T23:27:55.644Z,21.13
2023-03-10T23:30:24.192Z,20.43
2023-03-10T23:32:53.594Z,19.53
2023-03-10T23:35:22.812Z,18.87
2023-03-10T23:37:51.504Z,18.80
2023-03-10T23:40:21.158Z,17.73
2023-03-10T23:42:49.740Z,18.23
2023-03-10T23:45:20.875Z,18.00
2023-03-10T23:47:49.658Z,17.67
2023-03-10T23:50:19.565Z,17.37
2023-03-10T23:52:48.220Z,15.90
2023-03-10T23:55:17.517Z,15.63
2023-03-10T23:57:45.922Z,14.97
